createdAt,value
2018-08-30T00:02:09.244Z,2.63
2018-08-30T00:04:37.793Z,3.00
2018-08-30T00:07:06.413Z,2.67
2018-08-30T00:09:34.964Z,2.97
2018-08-30T00:12:03.558Z,2.93
2018-08-30T00:14:32.339Z,2.93
2018-08-30T00:17:00.980Z,2.73
2018-08-30T00:19:29.767Z,2.40
2018-08-30T00:21:58.476Z,3.20
2018-08-30T00:24:27.059Z,3.70
2018-08-30T00:26:55.615Z,3.90
2018-08-30T00:29:24.258Z,3.20
2018-08-30T00:31:52.864Z,3.20
2018-08-30T00:34:21.959Z,3.10
2018-08-30T00:36:50.625Z,3.10
2018-08-30T00:39:19.198Z,3.70
2018-08-30T00:41:47.751Z,2.83
2018-08-30T00:44:16.383Z,3.30
2018-08-30T00:46:44.968Z,2.97
2018-08-30T00:49:13.548Z,3.40
2018-08-30T00:51:42.097Z,2.90
2018-08-30T00:54:11.126Z,3.03
2018-08-30T00:56:39.736Z,3.53
2018-08-30T00:59:08.363Z,3.13
2018-08-30T01:01:36.927Z,3.57
2018-08-30T01:04:05.838Z,3.10
2018-08-30T01:06:34.574Z,3.10
2018-08-30T01:09:03.331Z,2.97
2018-08-30T01:11:31.960Z,2.90
2018-08-30T01:14:00.853Z,3.23
2018-08-30T01:16:29.443Z,2.93
2018-08-30T01:18:58.012Z,3.03
2018-08-30T01:21:26.705Z,2.93
2018-08-30T01:23:55.604Z,3.43
2018-08-30T01:26:24.178Z,3.40
2018-08-30T01:28:52.739Z,2.70
2018-08-30T01:31:21.431Z,3.33
2018-08-30T01:33:50.082Z,3.40
2018-08-30T01:36:18.729Z,3.30
2018-08-30T01:38:47.478Z,3.53
2018-08-30T01:41:16.043Z,3.30
2018-08-30T01:43:44.866Z,3.30
2018-08-30T01:46:13.621Z,2.87
2018-08-30T01:48:42.279Z,3.20
2018-08-30T01:51:11.052Z,3.63
2018-08-30T01:53:40.649Z,3.30
2018-08-30T01:56:09.341Z,3.00
2018-08-30T01:58:38.054Z,3.67
2018-08-30T02:01:06.780Z,3.30
2018-08-30T02:03:35.619Z,3.13
2018-08-30T02:06:04.398Z,3.37
2018-08-30T02:08:33.095Z,3.20
2018-08-30T02:11:02.089Z,3.00
2018-08-30T02:13:30.836Z,3.40
2018-08-30T02:15:59.567Z,3.07
2018-08-30T02:18:28.236Z,3.33
2018-08-30T02:20:56.969Z,3.00
2018-08-30T02:23:25.736Z,3.10
2018-08-30T02:25:54.320Z,3.20
2018-08-30T02:28:23.419Z,3.33
2018-08-30T02:30:52.167Z,2.80
2018-08-30T02:33:21.038Z,2.40
2018-08-30T02:35:49.780Z,3.10
2018-08-30T02:38:18.545Z,2.70
2018-08-30T02:40:47.212Z,2.87
2018-08-30T02:43:16.044Z,2.90
2018-08-30T02:45:45.564Z,3.13
2018-08-30T02:48:14.192Z,2.87
2018-08-30T02:50:42.849Z,2.70
2018-08-30T02:53:11.509Z,2.30
2018-08-30T02:55:40.140Z,2.50
2018-08-30T02:58:08.775Z,2.50
2018-08-30T03:00:37.464Z,2.37
2018-08-30T03:03:06.306Z,2.87
2018-08-30T03:05:34.943Z,2.30
2018-08-30T03:08:03.526Z,2.47
2018-08-30T03:10:32.197Z,2.40
2018-08-30T03:13:01.198Z,2.03
2018-08-30T03:15:29.766Z,2.07
2018-08-30T03:17:58.412Z,2.10
2018-08-30T03:20:27.054Z,2.00
2018-08-30T03:22:55.911Z,2.10
2018-08-30T03:25:24.528Z,2.20
2018-08-30T03:27:53.207Z,2.30
2018-08-30T03:30:21.924Z,2.17
2018-08-30T03:32:50.755Z,2.20
2018-08-30T03:35:19.484Z,1.90
2018-08-30T03:37:48.278Z,1.80
2018-08-30T03:40:17.063Z,1.77
2018-08-30T03:42:46.008Z,1.87
2018-08-30T03:45:14.740Z,1.90
2018-08-30T03:47:43.393Z,2.20
2018-08-30T03:50:12.224Z,1.83
2018-08-30T03:52:40.860Z,2.07
2018-08-30T03:55:09.597Z,2.20
2018-08-30T03:57:38.549Z,1.90
2018-08-30T04:00:07.330Z,2.00
2018-08-30T04:02:36.009Z,1.97
2018-08-30T04:05:04.700Z,1.93
2018-08-30T04:07:33.292Z,2.03
2018-08-30T04:10:02.061Z,1.90
2018-08-30T04:12:30.657Z,2.20
2018-08-30T04:14:59.251Z,2.33
2018-08-30T04:17:27.903Z,2.50
2018-08-30T04:19:56.591Z,2.10
2018-08-30T04:22:25.233Z,2.47
2018-08-30T04:24:54.056Z,2.40
2018-08-30T04:27:22.788Z,1.80
2018-08-30T04:29:51.424Z,2.00
2018-08-30T04:32:20.104Z,1.97
2018-08-30T04:34:48.800Z,2.53
2018-08-30T04:37:17.430Z,2.10
2018-08-30T04:39:46.344Z,2.27
2018-08-30T04:42:15.045Z,2.20
2018-08-30T04:44:43.737Z,2.60
2018-08-30T04:47:12.412Z,3.10
2018-08-30T04:49:41.098Z,3.10
2018-08-30T04:52:09.698Z,2.70
2018-08-30T04:54:38.525Z,2.80
2018-08-30T04:57:07.111Z,3.37
2018-08-30T04:59:35.691Z,3.07
2018-08-30T05:02:04.741Z,3.00
2018-08-30T05:04:33.383Z,3.47
2018-08-30T05:07:01.902Z,3.13
2018-08-30T05:09:31.476Z,3.27
2018-08-30T05:12:00.186Z,3.43
2018-08-30T05:14:28.986Z,2.90
2018-08-30T05:16:57.750Z,3.10
2018-08-30T05:19:26.596Z,3.67
2018-08-30T05:21:55.223Z,3.73
2018-08-30T05:24:23.906Z,3.30
2018-08-30T05:26:52.584Z,3.57
2018-08-30T05:29:21.608Z,4.07
2018-08-30T05:31:50.191Z,4.00
2018-08-30T05:34:19.104Z,3.40
2018-08-30T05:36:47.674Z,3.50
2018-08-30T05:39:16.226Z,3.57
2018-08-30T05:41:45.348Z,3.30
2018-08-30T05:44:13.915Z,3.40
2018-08-30T05:46:42.512Z,3.27
2018-08-30T05:49:11.135Z,3.40
2018-08-30T05:51:39.820Z,3.23
2018-08-30T05:54:08.561Z,3.10
2018-08-30T05:56:37.262Z,3.50
2018-08-30T05:59:05.872Z,3.13
2018-08-30T06:01:34.623Z,3.97
2018-08-30T06:04:03.302Z,3.13
2018-08-30T06:06:31.876Z,3.27
2018-08-30T06:09:00.728Z,3.57
2018-08-30T06:11:29.407Z,3.07
2018-08-30T06:13:58.051Z,3.30
2018-08-30T06:16:26.640Z,3.10
2018-08-30T06:18:55.280Z,3.03
2018-08-30T06:21:23.920Z,3.63
2018-08-30T06:23:53.199Z,3.20
2018-08-30T06:26:21.873Z,3.37
2018-08-30T06:28:50.621Z,3.10
2018-08-30T06:31:19.206Z,3.20
2018-08-30T06:33:48.049Z,3.17
2018-08-30T06:36:16.770Z,2.90
2018-08-30T06:38:45.896Z,2.67
2018-08-30T06:41:14.461Z,3.20
2018-08-30T06:43:43.178Z,2.97
2018-08-30T06:46:11.945Z,3.30
2018-08-30T06:48:41.036Z,4.10
2018-08-30T06:51:09.964Z,3.47
2018-08-30T06:53:39.000Z,3.63
2018-08-30T06:56:07.646Z,4.23
2018-08-30T06:58:36.411Z,4.67
2018-08-30T07:01:05.586Z,5.03
2018-08-30T07:03:34.183Z,4.50
2018-08-30T07:06:02.736Z,4.83
2018-08-30T07:08:31.353Z,5.13
2018-08-30T07:11:00.055Z,5.00
2018-08-30T07:13:28.957Z,5.20
2018-08-30T07:15:58.015Z,5.17
2018-08-30T07:18:26.584Z,5.47
2018-08-30T07:20:55.218Z,5.10
2018-08-30T07:23:23.831Z,5.90
2018-08-30T07:25:52.469Z,6.00
2018-08-30T07:28:21.132Z,6.17
2018-08-30T07:30:49.823Z,5.77
2018-08-30T07:33:18.422Z,5.33
2018-08-30T07:35:46.993Z,6.03
2018-08-30T07:38:15.784Z,5.57
2018-08-30T07:40:44.342Z,5.47
2018-08-30T07:43:12.994Z,5.70
2018-08-30T07:45:42.036Z,5.20
2018-08-30T07:48:10.807Z,5.27
2018-08-30T07:50:39.420Z,5.67
2018-08-30T07:53:08.085Z,5.53
2018-08-30T07:55:36.692Z,4.97
2018-08-30T07:58:05.455Z,4.63
2018-08-30T08:00:34.067Z,4.70
2018-08-30T08:03:02.653Z,4.67
2018-08-30T08:05:31.630Z,5.20
2018-08-30T08:08:00.179Z,5.63
2018-08-30T08:10:28.783Z,5.50
2018-08-30T08:12:57.396Z,5.70
2018-08-30T08:15:26.084Z,5.70
2018-08-30T08:17:54.752Z,6.23
2018-08-30T08:20:23.392Z,5.90
2018-08-30T08:22:52.007Z,6.03
2018-08-30T08:25:20.727Z,5.00
2018-08-30T08:27:49.878Z,5.30
2018-08-30T08:30:18.520Z,5.20
2018-08-30T08:32:47.098Z,4.73
2018-08-30T08:35:15.936Z,4.87
2018-08-30T08:37:44.508Z,4.83
2018-08-30T08:40:14.181Z,4.53
2018-08-30T08:42:43.725Z,5.07
2018-08-30T08:45:12.691Z,4.87
2018-08-30T08:47:41.509Z,4.40
2018-08-30T08:50:10.201Z,4.67
2018-08-30T08:52:38.908Z,4.23
2018-08-30T08:55:07.640Z,4.83
2018-08-30T08:57:36.266Z,4.53
2018-08-30T09:00:05.069Z,4.37
2018-08-30T09:02:33.839Z,4.60
2018-08-30T09:05:02.423Z,4.97
2018-08-30T09:07:31.078Z,4.37
2018-08-30T09:09:59.655Z,4.80
2018-08-30T09:12:28.384Z,4.47
2018-08-30T09:14:57.107Z,4.03
2018-08-30T09:17:25.655Z,3.50
2018-08-30T09:19:54.422Z,4.70
2018-08-30T09:22:23.266Z,4.70
2018-08-30T09:24:52.161Z,3.83
2018-08-30T09:27:20.807Z,3.87
2018-08-30T09:29:49.442Z,4.27
2018-08-30T09:32:18.937Z,3.67
2018-08-30T09:34:47.807Z,3.80
2018-08-30T09:37:16.475Z,3.47
2018-08-30T09:39:46.134Z,4.07
2018-08-30T09:42:15.283Z,3.80
2018-08-30T09:44:44.073Z,3.73
2018-08-30T09:47:12.740Z,3.87
2018-08-30T09:49:41.308Z,4.03
2018-08-30T09:52:09.921Z,4.00
2018-08-30T09:54:38.978Z,5.13
2018-08-30T09:57:07.734Z,3.93
2018-08-30T09:59:36.180Z,3.60
2018-08-30T10:02:09.957Z,3.87
2018-08-30T10:04:38.532Z,3.87
2018-08-30T10:07:07.121Z,3.43
2018-08-30T10:09:35.981Z,2.77
2018-08-30T10:12:05.813Z,3.97
2018-08-30T10:14:34.754Z,3.70
2018-08-30T10:17:03.672Z,3.23
2018-08-30T10:19:32.388Z,3.17
2018-08-30T10:22:01.036Z,2.87
2018-08-30T10:24:29.764Z,4.60
2018-08-30T10:26:58.409Z,4.03
2018-08-30T10:29:27.185Z,3.77
2018-08-30T10:31:55.785Z,3.50
2018-08-30T10:34:24.619Z,3.97
2018-08-30T10:36:53.563Z,3.40
2018-08-30T10:39:22.044Z,3.90
2018-08-30T10:41:50.663Z,4.17
2018-08-30T10:44:19.248Z,4.43
2018-08-30T10:46:47.869Z,5.43
2018-08-30T10:49:16.574Z,5.57
2018-08-30T10:51:45.212Z,5.23
2018-08-30T10:54:13.818Z,6.47
2018-08-30T10:56:42.821Z,5.73
2018-08-30T10:59:26.093Z,6.10
2018-08-30T11:01:54.847Z,5.20
2018-08-30T11:04:23.671Z,5.40
2018-08-30T11:06:53.064Z,5.27
2018-08-30T11:09:21.643Z,4.83
2018-08-30T11:11:50.288Z,5.80
2018-08-30T11:14:18.948Z,5.47
2018-08-30T11:16:47.590Z,6.07
2018-08-30T11:19:16.375Z,5.70
2018-08-30T11:21:45.020Z,5.87
2018-08-30T11:24:13.760Z,5.90
2018-08-30T11:26:42.609Z,5.80
2018-08-30T11:29:11.199Z,6.00
2018-08-30T11:31:39.836Z,6.53
2018-08-30T11:34:08.417Z,6.57
2018-08-30T11:36:37.012Z,5.40
2018-08-30T11:39:07.204Z,6.50
2018-08-30T11:41:36.158Z,5.87
2018-08-30T11:44:05.018Z,6.50
2018-08-30T11:46:34.779Z,6.17
2018-08-30T11:49:03.398Z,6.07
2018-08-30T11:51:32.137Z,6.43
2018-08-30T11:54:00.852Z,7.50
2018-08-30T11:56:30.466Z,6.73
2018-08-30T11:58:59.320Z,6.60
2018-08-30T12:01:27.856Z,6.23
2018-08-30T12:03:57.267Z,6.57
2018-08-30T12:06:26.400Z,6.37
2018-08-30T12:08:55.155Z,6.93
2018-08-30T12:11:23.902Z,6.90
2018-08-30T12:13:52.579Z,7.03
2018-08-30T12:16:21.165Z,6.83
2018-08-30T12:18:49.823Z,6.50
2018-08-30T12:21:18.740Z,6.37
2018-08-30T12:23:47.488Z,7.67
2018-08-30T12:26:21.350Z,6.33
2018-08-30T12:28:50.550Z,7.07
2018-08-30T12:31:19.695Z,7.63
2018-08-30T12:33:48.409Z,7.53
2018-08-30T12:36:17.055Z,7.50
2018-08-30T12:38:45.913Z,7.80
2018-08-30T12:41:14.880Z,7.03
2018-08-30T12:43:43.755Z,6.53
2018-08-30T12:46:12.829Z,7.87
2018-08-30T12:48:41.500Z,8.23
2018-08-30T12:51:10.457Z,7.63
2018-08-30T12:53:39.175Z,7.70
2018-08-30T12:56:08.044Z,7.40
2018-08-30T12:58:36.993Z,7.83
2018-08-30T13:01:05.542Z,7.37
2018-08-30T13:03:34.280Z,7.37
2018-08-30T13:06:03.268Z,7.70
2018-08-30T13:08:32.648Z,7.60
2018-08-30T13:11:01.543Z,6.83
2018-08-30T13:13:30.466Z,7.30
2018-08-30T13:15:59.106Z,7.67
2018-08-30T13:18:27.738Z,7.87
2018-08-30T13:20:56.610Z,7.20
2018-08-30T13:23:25.392Z,8.70
2018-08-30T13:25:53.833Z,7.67
2018-08-30T13:28:23.090Z,8.40
2018-08-30T13:30:51.697Z,8.90
2018-08-30T13:33:20.782Z,8.10
2018-08-30T13:35:48.880Z,8.37
2018-08-30T13:38:18.195Z,7.70
2018-08-30T13:40:46.746Z,8.70
2018-08-30T13:43:15.792Z,8.20
2018-08-30T13:45:44.437Z,7.90
2018-08-30T13:48:13.107Z,7.47
2018-08-30T13:50:42.245Z,7.73
2018-08-30T13:53:11.025Z,7.33
2018-08-30T13:55:39.823Z,7.23
2018-08-30T13:58:08.498Z,6.83
2018-08-30T14:00:37.424Z,7.30
2018-08-30T14:03:05.711Z,7.97
2018-08-30T14:05:34.679Z,8.50
2018-08-30T14:08:03.474Z,7.87
2018-08-30T14:10:32.054Z,7.47
2018-08-30T14:13:00.888Z,7.27
2018-08-30T14:15:30.007Z,8.73
2018-08-30T14:17:58.469Z,7.73
2018-08-30T14:20:27.187Z,7.30
2018-08-30T14:22:56.147Z,7.00
2018-08-30T14:25:24.780Z,7.57
2018-08-30T14:27:53.671Z,7.20
2018-08-30T14:30:22.299Z,7.20
2018-08-30T14:32:50.987Z,7.33
2018-08-30T14:35:19.562Z,7.00
2018-08-30T14:37:48.296Z,6.87
2018-08-30T14:40:17.168Z,7.23
2018-08-30T14:42:46.345Z,7.13
2018-08-30T14:45:15.014Z,7.20
2018-08-30T14:47:43.884Z,6.67
2018-08-30T14:50:12.627Z,7.67
2018-08-30T14:52:41.257Z,6.77
2018-08-30T14:55:09.951Z,7.20
2018-08-30T14:57:38.789Z,7.07
2018-08-30T15:00:07.444Z,6.90
2018-08-30T15:02:36.059Z,7.27
2018-08-30T15:05:04.902Z,7.63
2018-08-30T15:07:33.665Z,6.90
2018-08-30T15:10:02.671Z,7.70
2018-08-30T15:12:31.409Z,7.53
2018-08-30T15:14:59.999Z,7.63
2018-08-30T15:17:29.081Z,7.07
2018-08-30T15:19:57.812Z,7.37
2018-08-30T15:22:26.419Z,7.70
2018-08-30T15:24:55.059Z,7.50
2018-08-30T15:27:23.644Z,7.67
2018-08-30T15:29:52.313Z,7.93
2018-08-30T15:32:21.055Z,8.23
2018-08-30T15:34:49.887Z,7.53
2018-08-30T15:37:18.675Z,7.97
2018-08-30T15:39:47.351Z,7.77
2018-08-30T15:42:16.404Z,8.07
2018-08-30T15:44:44.907Z,7.50
2018-08-30T15:47:13.625Z,8.23
2018-08-30T15:49:42.215Z,8.23
2018-08-30T15:52:11.119Z,7.03
2018-08-30T15:54:39.703Z,7.73
2018-08-30T15:57:08.746Z,7.47
2018-08-30T15:59:37.485Z,8.20
2018-08-30T16:02:06.620Z,9.10
2018-08-30T16:04:35.520Z,8.10
2018-08-30T16:07:04.209Z,8.07
2018-08-30T16:09:32.910Z,7.60
2018-08-30T16:12:01.625Z,9.23
2018-08-30T16:14:30.730Z,8.27
2018-08-30T16:16:59.731Z,9.47
2018-08-30T16:19:28.987Z,8.60
2018-08-30T16:21:57.798Z,8.63
2018-08-30T16:24:26.746Z,9.17
2018-08-30T16:26:55.490Z,8.53
2018-08-30T16:29:24.093Z,8.80
2018-08-30T16:31:52.672Z,7.77
2018-08-30T16:34:21.220Z,8.13
2018-08-30T16:36:49.894Z,7.43
2018-08-30T16:39:18.693Z,8.23
2018-08-30T16:41:47.430Z,9.33
2018-08-30T16:44:16.012Z,7.63
2018-08-30T16:46:44.664Z,8.50
2018-08-30T16:49:13.355Z,8.20
2018-08-30T16:51:42.219Z,8.03
2018-08-30T16:54:11.268Z,8.10
2018-08-30T16:56:39.904Z,7.97
2018-08-30T16:59:08.777Z,8.17
2018-08-30T17:01:37.332Z,8.33
2018-08-30T17:04:06.155Z,7.93
2018-08-30T17:06:34.811Z,8.10
2018-08-30T17:09:03.629Z,7.40
2018-08-30T17:11:32.209Z,7.90
2018-08-30T17:14:01.213Z,7.87
2018-08-30T17:16:29.960Z,7.27
2018-08-30T17:19:06.124Z,7.90
2018-08-30T17:21:39.121Z,7.97
2018-08-30T17:24:07.774Z,8.73
2018-08-30T17:26:36.433Z,7.30
2018-08-30T17:29:05.331Z,8.27
2018-08-30T17:31:34.475Z,8.13
2018-08-30T17:34:03.106Z,7.53
2018-08-30T17:36:32.146Z,8.33
2018-08-30T17:39:00.772Z,8.00
2018-08-30T17:41:29.479Z,8.07
2018-08-30T17:43:58.181Z,8.00
2018-08-30T17:46:26.896Z,8.27
2018-08-30T17:48:55.721Z,8.33
2018-08-30T17:51:24.515Z,8.00
2018-08-30T17:53:53.195Z,7.53
2018-08-30T17:56:22.185Z,8.23
2018-08-30T17:58:50.814Z,7.70
2018-08-30T18:01:19.777Z,8.47
2018-08-30T18:03:48.405Z,8.17
2018-08-30T18:06:17.042Z,8.13
2018-08-30T18:15:44.078Z,7.53
2018-08-30T18:18:12.862Z,8.20
2018-08-30T18:20:41.412Z,8.10
2018-08-30T18:23:10.557Z,8.77
2018-08-30T18:25:39.436Z,8.77
2018-08-30T18:28:08.224Z,8.73
2018-08-30T18:30:37.238Z,8.30
2018-08-30T18:33:06.123Z,8.00
2018-08-30T18:35:34.672Z,8.40
2018-08-30T18:38:03.260Z,8.40
2018-08-30T18:40:32.357Z,7.90
2018-08-30T18:43:01.145Z,8.53
2018-08-30T18:45:29.779Z,8.10
2018-08-30T18:47:58.657Z,9.27
2018-08-30T18:50:27.287Z,8.63
2018-08-30T18:52:56.216Z,8.13
2018-08-30T18:55:24.819Z,8.37
2018-08-30T18:57:53.624Z,8.33
2018-08-30T19:00:22.880Z,9.00
2018-08-30T19:02:51.455Z,8.27
2018-08-30T19:05:20.457Z,9.00
2018-08-30T19:07:49.531Z,9.30
2018-08-30T19:10:18.421Z,9.00
2018-08-30T19:12:47.143Z,7.93
2018-08-30T19:15:21.154Z,8.63
2018-08-30T19:17:55.064Z,8.23
2018-08-30T19:20:24.603Z,8.73
2018-08-30T19:22:53.219Z,8.53
2018-08-30T19:25:28.152Z,9.13
2018-08-30T19:27:56.842Z,9.20
2018-08-30T19:30:28.271Z,8.40
2018-08-30T19:32:57.887Z,8.80
2018-08-30T19:35:31.750Z,9.50
2018-08-30T19:38:00.430Z,9.13
2018-08-30T19:40:34.435Z,9.37
2018-08-30T19:43:03.433Z,9.03
2018-08-30T19:45:31.972Z,9.80
2018-08-30T19:48:00.567Z,9.03
2018-08-30T19:50:29.728Z,10.00
2018-08-30T19:52:58.344Z,9.33
2018-08-30T19:55:28.190Z,9.30
2018-08-30T19:57:56.810Z,9.70
2018-08-30T20:00:25.513Z,9.43
2018-08-30T20:02:54.116Z,9.73
2018-08-30T20:05:23.234Z,9.13
2018-08-30T20:07:51.800Z,8.90
2018-08-30T20:10:20.419Z,9.47
2018-08-30T20:12:49.007Z,9.40
2018-08-30T20:15:17.994Z,10.73
2018-08-30T20:17:46.690Z,9.70
2018-08-30T20:20:16.496Z,9.67
2018-08-30T20:22:45.122Z,9.10
2018-08-30T20:25:13.939Z,10.07
2018-08-30T20:27:42.596Z,9.47
2018-08-30T20:30:11.301Z,9.70
2018-08-30T20:32:39.846Z,10.37
2018-08-30T20:35:08.636Z,9.60
2018-08-30T20:37:37.780Z,10.37
2018-08-30T20:40:06.744Z,9.50
2018-08-30T20:42:35.367Z,9.30
2018-08-30T20:45:04.163Z,9.07
2018-08-30T20:47:32.729Z,9.67
2018-08-30T20:50:01.772Z,9.07
2018-08-30T20:52:30.473Z,9.30
2018-08-30T20:54:59.096Z,8.93
2018-08-30T20:57:27.930Z,9.80
2018-08-30T20:59:56.851Z,9.47
2018-08-30T21:02:26.630Z,8.80
2018-08-30T21:04:55.553Z,8.80
2018-08-30T21:07:24.132Z,9.67
2018-08-30T21:09:53.017Z,8.93
2018-08-30T21:12:21.628Z,9.23
2018-08-30T21:14:50.266Z,9.10
2018-08-30T21:17:18.850Z,9.50
2018-08-30T21:19:47.541Z,8.50
2018-08-30T21:22:16.083Z,9.17
2018-08-30T21:24:44.672Z,9.70
2018-08-30T21:27:13.323Z,9.23
2018-08-30T21:29:42.208Z,9.23
2018-08-30T21:32:10.790Z,8.80
2018-08-30T21:34:39.812Z,9.00
2018-08-30T21:37:08.780Z,8.83
2018-08-30T21:39:37.392Z,9.40
2018-08-30T21:42:05.980Z,9.23
2018-08-30T21:44:34.561Z,8.70
2018-08-30T21:47:03.211Z,9.50
2018-08-30T21:49:32.411Z,9.30
2018-08-30T21:52:01.449Z,8.87
2018-08-30T21:54:31.195Z,9.70
2018-08-30T21:56:59.783Z,8.40
2018-08-30T21:59:28.874Z,8.90
2018-08-30T22:01:58.458Z,8.87
2018-08-30T22:04:27.076Z,8.57
2018-08-30T22:06:55.758Z,9.50
2018-08-30T22:09:24.511Z,9.10
2018-08-30T22:11:53.152Z,8.80
2018-08-30T22:14:22.023Z,9.27
2018-08-30T22:16:53.642Z,8.70
2018-08-30T22:19:22.368Z,8.93
2018-08-30T22:21:51.117Z,9.70
2018-08-30T22:24:20.643Z,9.13
2018-08-30T22:26:49.756Z,8.80
2018-08-30T22:29:18.788Z,8.83
2018-08-30T22:31:47.348Z,10.23
2018-08-30T22:34:16.192Z,10.77
2018-08-30T22:36:44.737Z,11.73
2018-08-30T22:39:13.768Z,11.43
2018-08-30T22:41:42.543Z,11.30
2018-08-30T22:44:11.410Z,12.10
2018-08-30T22:46:40.336Z,11.07
2018-08-30T22:49:09.472Z,10.10
2018-08-30T22:51:38.643Z,9.57
2018-08-30T22:54:07.258Z,9.60
2018-08-30T22:56:36.949Z,9.93
2018-08-30T22:59:06.023Z,9.77
2018-08-30T23:01:34.645Z,9.23
2018-08-30T23:04:03.307Z,9.10
2018-08-30T23:06:31.952Z,9.97
2018-08-30T23:09:00.509Z,9.50
2018-08-30T23:11:29.490Z,9.83
2018-08-30T23:13:58.052Z,8.77
2018-08-30T23:16:26.665Z,9.27
2018-08-30T23:18:55.278Z,9.57
2018-08-30T23:21:24.318Z,8.90
2018-08-30T23:23:54.061Z,9.53
2018-08-30T23:26:22.760Z,10.00
2018-08-30T23:28:51.862Z,9.20
2018-08-30T23:31:20.851Z,9.83
2018-08-30T23:33:49.593Z,9.07
2018-08-30T23:36:18.160Z,9.60
2018-08-30T23:38:46.794Z,9.87
2018-08-30T23:41:15.405Z,9.93
2018-08-30T23:43:44.064Z,9.50
2018-08-30T23:46:13.232Z,9.70
2018-08-30T23:48:41.969Z,9.77
2018-08-30T23:51:10.846Z,10.23
2018-08-30T23:53:39.531Z,10.20
2018-08-30T23:56:08.279Z,9.80
2018-08-30T23:58:48.067Z,9.43
